createdAt,value
2022-08-11T00:00:42.895Z,0.00
2022-08-11T00:01:42.862Z,0.00
2022-08-11T00:02:42.877Z,0.00
2022-08-11T00:03:43.950Z,0.00
2022-08-11T00:04:42.832Z,0.00
2022-08-11T00:05:42.850Z,0.00
2022-08-11T00:06:42.831Z,0.00
2022-08-11T00:07:42.818Z,0.00
2022-08-11T00:08:42.804Z,0.00
2022-08-11T00:09:42.829Z,0.00
2022-08-11T00:10:42.808Z,0.00
2022-08-11T00:11:42.788Z,0.00
2022-08-11T00:12:42.775Z,0.00
2022-08-11T00:13:42.762Z,0.00
2022-08-11T00:14:42.757Z,0.00
2022-08-11T00:15:42.769Z,0.00
2022-08-11T00:16:42.738Z,0.00
2022-08-11T00:17:42.728Z,0.00
2022-08-11T00:18:42.721Z,0.00
2022-08-11T00:20:14.299Z,0.00
2022-08-11T00:20:43.725Z,0.00
2022-08-11T00:22:05.101Z,0.00
2022-08-11T00:22:43.685Z,0.00
2022-08-11T00:23:42.680Z,0.00
2022-08-11T00:24:53.392Z,0.00
2022-08-11T00:25:43.690Z,0.00
2022-08-11T00:26:42.659Z,0.00
2022-08-11T00:27:42.649Z,0.00
2022-08-11T00:28:42.643Z,0.00
2022-08-11T00:29:51.748Z,0.00
2022-08-11T00:30:43.649Z,0.00
2022-08-11T00:31:42.620Z,0.00
2022-08-11T00:32:42.611Z,0.00
2022-08-11T00:33:45.233Z,0.00
2022-08-11T00:34:42.600Z,0.00
2022-08-11T00:35:55.516Z,0.00
2022-08-11T00:36:43.573Z,0.00
2022-08-11T00:37:42.608Z,0.00
2022-08-11T00:38:42.563Z,0.00
2022-08-11T00:39:42.641Z,0.00
2022-08-11T00:40:42.578Z,0.00
2022-08-11T00:41:42.539Z,0.00
2022-08-11T00:42:42.539Z,0.00
2022-08-11T00:43:42.531Z,0.00
2022-08-11T00:44:42.517Z,0.00
2022-08-11T00:45:42.539Z,0.00
2022-08-11T00:46:42.509Z,0.00
2022-08-11T00:47:42.494Z,0.00
2022-08-11T00:48:42.476Z,0.00
2022-08-11T00:49:43.480Z,0.00
2022-08-11T00:50:42.499Z,0.00
2022-08-11T00:51:56.724Z,0.00
2022-08-11T00:52:43.452Z,0.00
2022-08-11T00:53:42.446Z,0.00
2022-08-11T00:54:42.438Z,0.00
2022-08-11T00:55:42.459Z,0.00
2022-08-11T00:56:42.426Z,0.00
2022-08-11T00:57:42.421Z,0.00
2022-08-11T00:58:42.408Z,0.00
2022-08-11T00:59:42.402Z,0.00
2022-08-11T01:00:42.451Z,0.00
2022-08-11T01:01:42.390Z,0.00
2022-08-11T01:02:42.382Z,0.00
2022-08-11T01:03:42.376Z,0.00
2022-08-11T01:04:42.364Z,0.00
2022-08-11T01:05:42.383Z,0.00
2022-08-11T01:06:42.351Z,0.00
2022-08-11T01:08:01.838Z,0.00
2022-08-11T01:08:43.334Z,0.00
2022-08-11T01:09:42.326Z,0.00
2022-08-11T01:10:42.351Z,0.00
2022-08-11T01:11:55.216Z,0.00
2022-08-11T01:12:43.305Z,0.00
2022-08-11T01:13:42.291Z,0.00
2022-08-11T01:14:42.291Z,0.00
2022-08-11T01:15:42.301Z,0.00
2022-08-11T01:16:43.270Z,0.00
2022-08-11T01:17:42.263Z,0.00
2022-08-11T01:18:42.261Z,0.00
2022-08-11T01:20:39.473Z,0.00
2022-08-11T01:20:48.629Z,0.00
2022-08-11T01:21:43.234Z,0.00
2022-08-11T01:22:42.225Z,0.00
2022-08-11T01:23:42.216Z,0.00
2022-08-11T01:24:42.211Z,0.00
2022-08-11T01:25:56.811Z,0.00
2022-08-11T01:26:43.190Z,0.00
2022-08-11T01:27:42.190Z,0.00
2022-08-11T01:28:42.177Z,0.00
2022-08-11T01:29:42.171Z,0.00
2022-08-11T01:30:43.348Z,0.00
2022-08-11T01:31:42.159Z,0.00
2022-08-11T01:32:42.146Z,0.00
2022-08-11T01:33:42.139Z,0.00
2022-08-11T01:34:42.133Z,0.00
2022-08-11T01:35:42.158Z,0.00
2022-08-11T01:36:42.114Z,0.00
2022-08-11T01:37:42.110Z,0.00
2022-08-11T01:38:42.105Z,0.00
2022-08-11T01:39:42.146Z,0.00
2022-08-11T01:40:42.090Z,0.00
2022-08-11T01:41:42.108Z,0.00
2022-08-11T01:42:42.074Z,0.00
2022-08-11T01:43:42.065Z,0.00
2022-08-11T01:44:42.053Z,0.00
2022-08-11T01:45:42.043Z,0.00
2022-08-11T01:46:43.068Z,0.00
2022-08-11T01:47:52.910Z,0.00
2022-08-11T01:48:43.026Z,0.00
2022-08-11T01:50:08.186Z,0.00
2022-08-11T01:50:43.013Z,0.00
2022-08-11T01:51:45.209Z,0.00
2022-08-11T01:52:43.208Z,0.00
2022-08-11T01:53:41.988Z,0.00
2022-08-11T01:54:41.980Z,0.00
2022-08-11T01:55:41.971Z,0.00
2022-08-11T01:56:41.984Z,0.00
2022-08-11T01:57:41.952Z,0.00
2022-08-11T01:58:44.069Z,0.00
2022-08-11T01:59:41.950Z,0.00
2022-08-11T02:00:41.991Z,0.00
2022-08-11T02:01:41.950Z,0.00
2022-08-11T02:02:41.911Z,0.00
2022-08-11T02:03:41.908Z,0.00
2022-08-11T02:04:41.899Z,0.00
2022-08-11T02:05:41.894Z,0.00
2022-08-11T02:06:41.911Z,0.00
2022-08-11T02:07:41.879Z,0.00
2022-08-11T02:08:44.766Z,0.00
2022-08-11T02:09:49.760Z,0.00
2022-08-11T02:10:42.853Z,0.00
2022-08-11T02:11:42.870Z,0.00
2022-08-11T02:12:42.300Z,0.00
2022-08-11T02:13:43.405Z,0.00
2022-08-11T02:14:41.829Z,0.00
2022-08-11T02:15:42.813Z,0.00
2022-08-11T02:16:41.833Z,0.00
2022-08-11T02:17:41.803Z,0.00
2022-08-11T02:18:41.798Z,0.00
2022-08-11T02:19:41.793Z,0.00
2022-08-11T02:20:41.783Z,0.00
2022-08-11T02:21:41.807Z,0.00
2022-08-11T02:22:41.765Z,0.00
2022-08-11T02:24:05.955Z,0.00
2022-08-11T02:24:42.749Z,0.00
2022-08-11T02:25:41.741Z,0.00
2022-08-11T02:26:41.759Z,0.00
2022-08-11T02:27:41.730Z,0.00
2022-08-11T02:28:46.429Z,0.00
2022-08-11T02:29:42.715Z,0.00
2022-08-11T02:30:41.704Z,0.00
2022-08-11T02:32:25.143Z,0.00
2022-08-11T02:32:42.829Z,0.00
2022-08-11T02:33:41.681Z,0.00
2022-08-11T02:34:41.675Z,0.00
2022-08-11T02:35:41.668Z,0.00
2022-08-11T02:36:41.685Z,0.00
2022-08-11T02:37:41.661Z,0.00
2022-08-11T02:38:41.642Z,0.00
2022-08-11T02:39:41.675Z,0.00
2022-08-11T02:40:41.624Z,0.00
2022-08-11T02:41:41.650Z,0.00
2022-08-11T02:42:41.611Z,0.00
2022-08-11T02:43:41.606Z,0.00
2022-08-11T02:44:42.593Z,0.00
2022-08-11T02:45:41.593Z,0.00
2022-08-11T02:46:41.587Z,0.00
2022-08-11T02:47:41.604Z,0.00
2022-08-11T02:48:41.567Z,0.00
2022-08-11T02:49:41.559Z,0.00
2022-08-11T02:50:41.559Z,0.00
2022-08-11T02:51:41.550Z,0.00
2022-08-11T02:52:41.563Z,0.00
2022-08-11T02:53:41.530Z,0.00
2022-08-11T02:54:41.528Z,0.00
2022-08-11T02:55:48.691Z,0.00
2022-08-11T02:56:42.508Z,0.00
2022-08-11T02:57:41.527Z,0.00
2022-08-11T02:58:41.561Z,0.00
2022-08-11T02:59:41.489Z,0.00
2022-08-11T03:00:41.475Z,0.00
2022-08-11T03:01:41.535Z,0.00
2022-08-11T03:02:41.486Z,0.00
2022-08-11T03:03:41.448Z,0.00
2022-08-11T03:04:41.445Z,0.00
2022-08-11T03:05:41.438Z,0.00
2022-08-11T03:06:41.450Z,0.00
2022-08-11T03:07:41.416Z,0.00
2022-08-11T03:08:41.411Z,0.00
2022-08-11T03:09:41.407Z,0.00
2022-08-11T03:10:41.397Z,0.00
2022-08-11T03:11:41.415Z,0.00
2022-08-11T03:12:41.385Z,0.00
2022-08-11T03:13:41.372Z,0.00
2022-08-11T03:14:41.364Z,0.00
2022-08-11T03:15:41.355Z,0.00
2022-08-11T03:16:41.373Z,0.00
2022-08-11T03:17:41.337Z,0.00
2022-08-11T03:18:41.336Z,0.00
2022-08-11T03:19:41.326Z,0.00
2022-08-11T03:20:41.317Z,0.00
2022-08-11T03:22:01.377Z,0.00
2022-08-11T03:22:42.306Z,0.00
2022-08-11T03:23:41.287Z,0.00
2022-08-11T03:24:41.287Z,0.00
2022-08-11T03:25:41.282Z,0.00
2022-08-11T03:26:41.293Z,0.00
2022-08-11T03:27:41.261Z,0.00
2022-08-11T03:28:41.254Z,0.00
2022-08-11T03:29:41.244Z,0.00
2022-08-11T03:30:41.242Z,0.00
2022-08-11T03:31:41.256Z,0.00
2022-08-11T03:32:41.220Z,0.00
2022-08-11T03:33:41.218Z,0.00
2022-08-11T03:34:41.208Z,0.00
2022-08-11T03:35:41.199Z,0.00
2022-08-11T03:37:01.717Z,0.00
2022-08-11T03:37:42.182Z,0.00
2022-08-11T03:38:41.174Z,0.00
2022-08-11T03:39:41.222Z,0.00
2022-08-11T03:40:42.155Z,0.00
2022-08-11T03:42:01.378Z,0.00
2022-08-11T03:42:42.144Z,0.00
2022-08-11T03:43:45.758Z,0.00
2022-08-11T03:44:42.123Z,5.62
2022-08-11T03:45:41.339Z,5.62
2022-08-11T03:46:42.135Z,5.62
2022-08-11T03:47:41.104Z,5.62
2022-08-11T03:48:42.091Z,5.62
2022-08-11T03:49:41.088Z,5.62
2022-08-11T03:50:41.077Z,5.62
2022-08-11T03:51:44.579Z,5.62
2022-08-11T03:52:41.066Z,11.25
2022-08-11T03:53:41.080Z,11.25
2022-08-11T03:54:41.045Z,11.25
2022-08-11T03:55:41.038Z,11.25
2022-08-11T03:56:41.030Z,11.25
2022-08-11T03:57:41.018Z,16.88
2022-08-11T03:58:42.033Z,16.88
2022-08-11T03:59:43.006Z,16.88
2022-08-11T04:00:40.997Z,16.88
2022-08-11T04:01:41.057Z,22.50
2022-08-11T04:02:40.987Z,22.50
2022-08-11T04:03:41.005Z,22.50
2022-08-11T04:04:40.979Z,28.12
2022-08-11T04:05:41.966Z,28.12
2022-08-11T04:06:40.957Z,33.75
2022-08-11T04:07:40.957Z,33.75
2022-08-11T04:08:40.963Z,39.38
2022-08-11T04:09:40.936Z,45.00
2022-08-11T04:10:40.936Z,45.00
2022-08-11T04:11:40.922Z,50.62
2022-08-11T04:12:45.537Z,56.25
2022-08-11T04:13:42.924Z,61.88
2022-08-11T04:14:40.895Z,61.88
2022-08-11T04:15:40.897Z,67.50
2022-08-11T04:16:40.881Z,67.50
2022-08-11T04:17:40.879Z,73.12
2022-08-11T04:18:40.894Z,78.75
2022-08-11T04:19:40.855Z,106.88
2022-08-11T04:20:40.852Z,157.50
2022-08-11T04:21:40.841Z,202.50
2022-08-11T04:22:40.835Z,230.62
2022-08-11T04:24:35.585Z,253.12
2022-08-11T04:24:41.822Z,281.25
2022-08-11T04:25:57.714Z,303.75
2022-08-11T04:26:41.809Z,326.25
2022-08-11T04:27:40.800Z,354.38
2022-08-11T04:28:45.695Z,388.12
2022-08-11T04:30:03.059Z,416.25
2022-08-11T04:30:41.777Z,444.38
2022-08-11T04:31:49.526Z,472.50
2022-08-11T04:32:41.767Z,506.25
2022-08-11T04:33:40.784Z,523.12
2022-08-11T04:34:40.746Z,568.12
2022-08-11T04:35:40.740Z,601.88
2022-08-11T04:36:40.738Z,646.88
2022-08-11T04:37:40.724Z,675.00
2022-08-11T04:38:40.742Z,691.88
2022-08-11T04:39:40.789Z,725.62
2022-08-11T04:40:40.702Z,770.62
2022-08-11T04:41:40.694Z,804.38
2022-08-11T04:42:40.880Z,838.12
2022-08-11T04:44:02.645Z,871.88
2022-08-11T04:44:41.668Z,894.38
2022-08-11T04:45:40.660Z,916.88
2022-08-11T04:46:40.657Z,984.38
2022-08-11T04:48:01.825Z,1023.75
2022-08-11T04:48:41.656Z,1068.75
2022-08-11T04:49:40.634Z,1085.62
2022-08-11T04:50:40.622Z,1096.88
2022-08-11T04:51:40.613Z,1147.50
2022-08-11T04:52:40.882Z,1186.88
2022-08-11T04:53:40.637Z,1220.62
2022-08-11T04:54:40.588Z,1226.25
2022-08-11T04:55:40.602Z,1260.00
2022-08-11T04:56:40.580Z,1310.62
2022-08-11T04:57:40.569Z,1350.00
2022-08-11T04:58:40.587Z,1389.38
2022-08-11T04:59:40.551Z,1400.62
2022-08-11T05:00:40.548Z,1440.00
2022-08-11T05:01:40.586Z,1496.25
2022-08-11T05:02:40.533Z,1535.62
2022-08-11T05:03:40.525Z,1524.38
2022-08-11T05:04:40.545Z,1524.38
2022-08-11T05:05:40.511Z,1552.50
2022-08-11T05:06:41.508Z,1558.12
2022-08-11T05:07:40.504Z,1631.25
2022-08-11T05:08:40.521Z,1648.12
2022-08-11T05:09:40.484Z,1687.50
2022-08-11T05:10:43.223Z,1738.12
2022-08-11T05:11:40.481Z,1749.38
2022-08-11T05:12:40.464Z,1816.88
2022-08-11T05:13:40.456Z,1822.50
2022-08-11T05:14:40.473Z,1563.75
2022-08-11T05:15:43.011Z,1220.62
2022-08-11T05:16:40.438Z,1411.88
2022-08-11T05:17:40.423Z,1935.00
2022-08-11T05:18:40.421Z,1996.88
2022-08-11T05:19:40.442Z,2041.88
2022-08-11T05:20:40.404Z,2070.00
2022-08-11T05:21:44.947Z,2053.12
2022-08-11T05:22:41.389Z,2103.75
2022-08-11T05:23:40.378Z,2098.12
2022-08-11T05:24:40.430Z,2070.00
2022-08-11T05:26:44.263Z,2092.50
2022-08-11T05:26:47.243Z,2115.00
2022-08-11T05:27:41.350Z,2143.12
2022-08-11T05:28:40.342Z,2137.50
2022-08-11T05:29:40.363Z,2210.62
2022-08-11T05:30:40.332Z,2272.50
2022-08-11T05:31:40.321Z,2295.00
2022-08-11T05:32:40.375Z,2311.88
2022-08-11T05:33:40.303Z,2328.75
2022-08-11T05:34:40.331Z,2340.00
2022-08-11T05:36:02.097Z,2379.38
2022-08-11T05:36:41.285Z,2390.62
2022-08-11T05:37:40.281Z,2418.75
2022-08-11T05:38:40.299Z,2379.38
2022-08-11T05:39:40.315Z,2407.50
2022-08-11T05:40:40.291Z,2458.12
2022-08-11T05:41:40.251Z,2486.25
2022-08-11T05:42:40.622Z,2536.88
2022-08-11T05:44:20.148Z,2548.12
2022-08-11T05:44:41.224Z,2593.12
2022-08-11T05:46:02.793Z,2610.00
2022-08-11T05:46:41.215Z,2581.88
2022-08-11T05:47:40.206Z,2548.12
2022-08-11T05:48:40.229Z,2581.88
2022-08-11T05:49:40.193Z,2632.50
2022-08-11T05:50:40.181Z,2666.25
2022-08-11T05:51:54.847Z,2649.38
2022-08-11T05:52:41.824Z,2626.88
2022-08-11T05:53:46.089Z,2626.88
2022-08-11T05:54:41.150Z,2587.50
2022-08-11T05:55:52.538Z,2621.25
2022-08-11T05:56:41.140Z,2666.25
2022-08-11T05:57:51.279Z,2711.25
2022-08-11T05:58:43.046Z,2677.50
2022-08-11T05:59:41.116Z,2598.75
2022-08-11T06:00:40.108Z,2700.00
2022-08-11T06:01:40.167Z,2671.88
2022-08-11T06:02:40.117Z,2638.12
2022-08-11T06:03:40.125Z,2728.12
2022-08-11T06:04:41.087Z,2733.75
2022-08-11T06:05:43.996Z,2745.00
2022-08-11T06:06:43.493Z,2790.00
2022-08-11T06:07:49.122Z,2801.25
2022-08-11T06:08:41.088Z,2666.25
2022-08-11T06:09:40.052Z,2587.50
2022-08-11T06:10:40.043Z,2694.38
2022-08-11T06:11:42.879Z,2739.38
2022-08-11T06:12:40.027Z,2795.62
2022-08-11T06:13:40.049Z,2795.62
2022-08-11T06:14:40.019Z,2761.88
2022-08-11T06:15:40.013Z,2784.38
2022-08-11T06:16:40.009Z,2851.88
2022-08-11T06:17:40.002Z,2857.50
2022-08-11T06:18:40.023Z,2868.75
2022-08-11T06:19:39.988Z,2908.12
2022-08-11T06:20:39.986Z,2902.50
2022-08-11T06:21:39.977Z,2891.25
2022-08-11T06:22:39.968Z,2885.62
2022-08-11T06:23:39.990Z,2891.25
2022-08-11T06:24:39.964Z,2880.00
2022-08-11T06:25:39.959Z,2874.38
2022-08-11T06:26:55.087Z,2874.38
2022-08-11T06:27:41.943Z,2896.88
2022-08-11T06:28:40.027Z,2851.88
2022-08-11T06:29:48.094Z,2778.75
2022-08-11T06:30:40.918Z,2829.38
2022-08-11T06:31:39.914Z,2857.50
2022-08-11T06:32:40.070Z,2863.12
2022-08-11T06:33:39.931Z,2902.50
2022-08-11T06:34:39.894Z,2913.75
2022-08-11T06:35:39.893Z,2902.50
2022-08-11T06:36:39.889Z,2880.00
2022-08-11T06:37:39.881Z,2868.75
2022-08-11T06:38:39.900Z,2846.25
2022-08-11T06:39:39.882Z,2896.88
2022-08-11T06:40:39.858Z,2953.12
2022-08-11T06:41:39.854Z,2902.50
2022-08-11T06:42:39.935Z,2913.75
2022-08-11T06:43:39.871Z,2947.50
2022-08-11T06:44:40.837Z,2986.88
2022-08-11T06:45:39.831Z,2986.88
2022-08-11T06:46:39.827Z,2970.00
2022-08-11T06:47:40.451Z,2953.12
2022-08-11T06:48:39.843Z,2880.00
2022-08-11T06:49:39.814Z,2874.38
2022-08-11T06:50:39.806Z,2981.25
2022-08-11T06:51:41.802Z,3009.38
2022-08-11T06:52:39.797Z,2964.38
2022-08-11T06:53:39.811Z,2947.50
2022-08-11T06:54:39.781Z,3037.50
2022-08-11T06:55:56.187Z,3105.00
2022-08-11T06:56:40.764Z,3105.00
2022-08-11T06:57:39.763Z,3105.00
2022-08-11T06:58:39.786Z,3105.00
2022-08-11T06:59:39.752Z,3200.62
2022-08-11T07:00:39.757Z,3217.50
2022-08-11T07:01:39.795Z,3172.50
2022-08-11T07:02:39.801Z,3138.75
2022-08-11T07:03:39.759Z,3150.00
2022-08-11T07:04:39.723Z,3223.12
2022-08-11T07:05:39.730Z,3240.00
2022-08-11T07:06:50.626Z,3223.12
2022-08-11T07:07:40.704Z,3223.12
2022-08-11T07:08:39.725Z,3262.50
2022-08-11T07:09:39.695Z,3245.62
2022-08-11T07:10:39.691Z,3279.38
2022-08-11T07:11:39.683Z,3301.88
2022-08-11T07:12:39.831Z,3307.50
2022-08-11T07:13:44.902Z,3301.88
2022-08-11T07:14:40.663Z,3273.75
2022-08-11T07:16:11.202Z,3279.38
2022-08-11T07:16:40.658Z,3318.75
2022-08-11T07:17:39.656Z,3341.25
2022-08-11T07:18:39.671Z,3268.12
2022-08-11T07:19:39.646Z,3256.88
2022-08-11T07:20:39.635Z,3296.25
2022-08-11T07:21:59.949Z,3318.75
2022-08-11T07:22:40.624Z,3324.38
2022-08-11T07:23:39.670Z,3307.50
2022-08-11T07:24:59.628Z,3330.00
2022-08-11T07:25:40.608Z,3346.88
2022-08-11T07:26:39.605Z,3335.62
2022-08-11T07:27:39.601Z,3341.25
2022-08-11T07:28:39.630Z,3436.88
2022-08-11T07:29:39.593Z,3487.50
2022-08-11T07:30:39.583Z,3504.38
2022-08-11T07:31:39.581Z,3521.25
2022-08-11T07:32:39.579Z,3493.12
2022-08-11T07:34:07.502Z,3498.75
2022-08-11T07:34:40.592Z,3493.12
2022-08-11T07:35:39.553Z,3493.12
2022-08-11T07:36:39.570Z,3476.25
2022-08-11T07:37:39.546Z,3493.12
2022-08-11T07:38:39.541Z,3476.25
2022-08-11T07:39:39.703Z,3408.75
2022-08-11T07:40:39.535Z,3442.50
2022-08-11T07:41:39.524Z,3380.62
2022-08-11T07:42:39.707Z,3375.00
2022-08-11T07:43:39.517Z,3425.62
2022-08-11T07:44:39.531Z,3459.38
2022-08-11T07:45:39.502Z,3476.25
2022-08-11T07:46:39.495Z,3510.00
2022-08-11T07:47:39.487Z,3521.25
2022-08-11T07:48:39.482Z,3476.25
2022-08-11T07:49:39.504Z,3352.50
2022-08-11T07:50:39.472Z,3324.38
2022-08-11T07:51:39.493Z,3408.75
2022-08-11T07:52:39.572Z,3504.38
2022-08-11T07:53:57.910Z,3510.00
2022-08-11T07:54:40.476Z,3650.62
2022-08-11T07:55:48.966Z,3622.50
2022-08-11T07:56:55.497Z,3566.25
2022-08-11T07:58:04.378Z,3583.12
2022-08-11T07:58:45.050Z,3487.50
2022-08-11T07:59:58.572Z,3431.25
2022-08-11T08:00:40.425Z,3498.75
2022-08-11T08:01:39.471Z,3605.62
2022-08-11T08:02:39.455Z,3594.38
2022-08-11T08:03:39.404Z,3571.88
2022-08-11T08:04:44.136Z,3560.62
2022-08-11T08:05:40.389Z,3594.38
2022-08-11T08:06:39.386Z,3661.88
2022-08-11T08:07:39.370Z,3661.88
2022-08-11T08:08:40.373Z,3605.62
2022-08-11T08:09:39.391Z,3718.12
2022-08-11T08:10:39.378Z,3735.00
2022-08-11T08:11:39.359Z,3684.38
2022-08-11T08:12:39.549Z,3656.25
2022-08-11T08:13:39.344Z,3701.25
2022-08-11T08:14:39.361Z,3656.25
2022-08-11T08:15:39.330Z,3588.75
2022-08-11T08:16:39.328Z,3481.88
2022-08-11T08:17:39.327Z,3442.50
2022-08-11T08:18:39.329Z,3465.00
2022-08-11T08:19:39.500Z,3217.50
2022-08-11T08:20:39.312Z,2998.12
2022-08-11T08:21:39.303Z,2475.00
2022-08-11T08:22:40.550Z,1935.00
2022-08-11T08:23:40.287Z,1788.75
2022-08-11T08:24:39.306Z,1828.12
2022-08-11T08:25:39.276Z,1839.38
2022-08-11T08:26:39.269Z,1873.12
2022-08-11T08:27:39.266Z,1895.62
2022-08-11T08:28:39.259Z,1867.50
2022-08-11T08:29:39.254Z,1856.25
2022-08-11T08:30:39.275Z,1822.50
2022-08-11T08:31:39.238Z,1783.12
2022-08-11T08:32:39.366Z,1760.62
2022-08-11T08:33:39.224Z,1755.00
2022-08-11T08:34:39.222Z,1738.12
2022-08-11T08:35:54.386Z,1704.38
2022-08-11T08:36:40.206Z,1648.12
2022-08-11T08:37:45.569Z,1620.00
2022-08-11T08:38:40.184Z,1591.88
2022-08-11T08:39:40.259Z,1507.50
2022-08-11T08:40:39.214Z,1541.25
2022-08-11T08:41:39.182Z,1563.75
2022-08-11T08:42:43.091Z,1524.38
2022-08-11T08:43:47.617Z,1490.62
2022-08-11T08:44:41.340Z,1485.00
2022-08-11T08:45:40.189Z,1462.50
2022-08-11T08:46:39.149Z,1451.25
2022-08-11T08:47:42.913Z,1456.88
2022-08-11T08:48:39.140Z,1468.12
2022-08-11T08:49:40.424Z,1451.25
2022-08-11T08:50:39.161Z,1462.50
2022-08-11T08:52:00.837Z,1440.00
2022-08-11T08:52:43.641Z,1406.25
2022-08-11T08:53:40.111Z,1423.12
2022-08-11T08:54:40.101Z,1383.75
2022-08-11T08:55:44.995Z,1417.50
2022-08-11T08:56:41.095Z,1411.88
2022-08-11T08:57:40.223Z,1344.38
2022-08-11T08:58:39.085Z,1344.38
2022-08-11T08:59:49.221Z,1445.62
2022-08-11T09:00:40.094Z,1321.88
2022-08-11T09:01:39.094Z,1395.00
2022-08-11T09:02:39.054Z,1451.25
2022-08-11T09:04:05.239Z,1524.38
2022-08-11T09:04:41.041Z,1575.00
2022-08-11T09:05:39.066Z,1580.62
2022-08-11T09:06:39.031Z,1575.00
2022-08-11T09:07:40.631Z,1603.12
2022-08-11T09:08:39.027Z,1620.00
2022-08-11T09:09:39.016Z,1648.12
2022-08-11T09:10:39.032Z,1676.25
2022-08-11T09:11:39.001Z,1704.38
2022-08-11T09:12:39.305Z,1749.38
2022-08-11T09:13:38.988Z,1788.75
2022-08-11T09:14:38.983Z,1850.62
2022-08-11T09:15:39.006Z,1912.50
2022-08-11T09:16:38.967Z,1991.25
2022-08-11T09:17:39.591Z,2086.88
2022-08-11T09:18:38.956Z,2250.00
2022-08-11T09:19:38.952Z,2390.62
2022-08-11T09:20:38.963Z,2424.38
2022-08-11T09:21:49.439Z,2463.75
2022-08-11T09:22:40.032Z,2401.88
2022-08-11T09:24:08.843Z,2317.50
2022-08-11T09:24:40.909Z,2233.12
2022-08-11T09:25:38.929Z,2047.50
2022-08-11T09:26:38.898Z,1856.25
2022-08-11T09:27:39.096Z,1800.00
2022-08-11T09:28:39.882Z,1698.75
2022-08-11T09:29:38.885Z,1586.25
2022-08-11T09:30:38.897Z,1479.38
2022-08-11T09:31:40.048Z,1372.50
2022-08-11T09:32:39.870Z,1276.88
2022-08-11T09:33:38.849Z,1203.75
2022-08-11T09:34:38.846Z,1136.25
2022-08-11T09:35:38.865Z,1051.88
2022-08-11T09:36:38.851Z,916.88
2022-08-11T09:37:55.582Z,793.12
2022-08-11T09:38:39.818Z,736.88
2022-08-11T09:39:38.863Z,725.62
2022-08-11T09:40:38.832Z,686.25
2022-08-11T09:42:01.518Z,669.38
2022-08-11T09:42:39.795Z,646.88
2022-08-11T09:43:38.787Z,618.75
2022-08-11T09:44:38.779Z,607.50
2022-08-11T09:45:40.203Z,590.62
2022-08-11T09:46:38.764Z,579.38
2022-08-11T09:47:38.888Z,579.38
2022-08-11T09:48:38.748Z,568.12
2022-08-11T09:49:38.743Z,551.25
2022-08-11T09:50:38.764Z,551.25
2022-08-11T09:51:38.735Z,545.62
2022-08-11T09:52:38.723Z,540.00
2022-08-11T09:53:41.266Z,523.12
2022-08-11T09:54:38.705Z,506.25
2022-08-11T09:55:38.727Z,489.38
2022-08-11T09:56:38.698Z,511.88
2022-08-11T09:57:38.777Z,500.62
2022-08-11T09:58:42.620Z,500.62
2022-08-11T09:59:38.679Z,500.62
2022-08-11T10:00:38.696Z,500.62
2022-08-11T10:01:38.681Z,500.62
2022-08-11T10:02:38.659Z,500.62
2022-08-11T10:03:40.464Z,495.00
2022-08-11T10:04:39.641Z,495.00
2022-08-11T10:05:38.674Z,489.38
2022-08-11T10:06:38.626Z,489.38
2022-08-11T10:07:38.750Z,489.38
2022-08-11T10:08:38.625Z,483.75
2022-08-11T10:09:38.606Z,483.75
2022-08-11T10:10:38.625Z,483.75
2022-08-11T10:11:38.599Z,478.12
2022-08-11T10:12:38.585Z,478.12
2022-08-11T10:14:32.180Z,478.12
2022-08-11T10:14:44.410Z,478.12
2022-08-11T10:15:59.564Z,478.12
2022-08-11T10:16:39.552Z,472.50
2022-08-11T10:17:38.660Z,472.50
2022-08-11T10:18:38.540Z,472.50
2022-08-11T10:19:38.534Z,472.50
2022-08-11T10:20:38.554Z,466.88
2022-08-11T10:21:38.524Z,466.88
2022-08-11T10:22:38.505Z,466.88
2022-08-11T10:24:01.015Z,466.88
2022-08-11T10:24:39.492Z,466.88
2022-08-11T10:25:38.508Z,466.88
2022-08-11T10:26:38.471Z,461.25
2022-08-11T10:28:16.592Z,461.25
2022-08-11T10:29:02.197Z,461.25
2022-08-11T10:29:44.253Z,461.25
2022-08-11T10:30:38.442Z,461.25
2022-08-11T10:31:45.141Z,455.62
2022-08-11T10:32:49.356Z,455.62
2022-08-11T10:33:41.759Z,455.62
2022-08-11T10:34:40.415Z,455.62
2022-08-11T10:35:39.411Z,455.62
2022-08-11T10:36:38.427Z,450.00
2022-08-11T10:38:08.522Z,450.00
2022-08-11T10:38:39.388Z,450.00
2022-08-11T10:39:38.444Z,450.00
2022-08-11T10:40:38.375Z,450.00
2022-08-11T10:41:38.390Z,444.38
2022-08-11T10:42:57.062Z,444.38
2022-08-11T10:44:02.498Z,438.75
2022-08-11T10:44:39.346Z,438.75
2022-08-11T10:45:38.335Z,438.75
2022-08-11T10:46:38.355Z,438.75
2022-08-11T10:47:38.459Z,433.12
2022-08-11T10:48:39.316Z,433.12
2022-08-11T10:49:38.304Z,433.12
2022-08-11T10:50:38.297Z,433.12
2022-08-11T10:51:51.667Z,433.12
2022-08-11T10:52:39.463Z,433.12
2022-08-11T10:53:38.275Z,427.50
2022-08-11T10:54:38.266Z,427.50
2022-08-11T10:55:38.254Z,427.50
2022-08-11T10:56:38.280Z,427.50
2022-08-11T10:57:38.474Z,427.50
2022-08-11T10:58:38.236Z,421.88
2022-08-11T10:59:38.227Z,421.88
2022-08-11T11:00:38.218Z,421.88
2022-08-11T11:01:38.243Z,421.88
2022-08-11T11:02:38.208Z,421.88
2022-08-11T11:03:38.201Z,421.88
2022-08-11T11:04:38.217Z,416.25
2022-08-11T11:05:38.186Z,416.25
2022-08-11T11:06:39.202Z,416.25
2022-08-11T11:07:41.491Z,416.25
2022-08-11T11:08:39.230Z,416.25
2022-08-11T11:09:38.160Z,416.25
2022-08-11T11:10:38.154Z,416.25
2022-08-11T11:11:38.177Z,416.25
2022-08-11T11:12:38.278Z,410.62
2022-08-11T11:13:38.127Z,410.62
2022-08-11T11:14:46.275Z,410.62
2022-08-11T11:15:39.112Z,405.00
2022-08-11T11:16:38.135Z,410.62
2022-08-11T11:17:38.098Z,410.62
2022-08-11T11:18:38.094Z,410.62
2022-08-11T11:19:38.093Z,405.00
2022-08-11T11:20:40.776Z,405.00
2022-08-11T11:21:43.330Z,405.00
2022-08-11T11:22:38.303Z,405.00
2022-08-11T11:23:38.055Z,405.00
2022-08-11T11:24:38.049Z,405.00
2022-08-11T11:25:38.042Z,405.00
2022-08-11T11:26:38.059Z,399.38
2022-08-11T11:27:46.687Z,405.00
2022-08-11T11:28:39.018Z,405.00
2022-08-11T11:29:38.009Z,399.38
2022-08-11T11:30:38.010Z,399.38
2022-08-11T11:31:38.038Z,399.38
2022-08-11T11:32:38.165Z,399.38
2022-08-11T11:33:59.968Z,399.38
2022-08-11T11:34:53.182Z,399.38
2022-08-11T11:35:38.969Z,399.38
2022-08-11T11:36:37.963Z,399.38
2022-08-11T11:37:37.981Z,399.38
2022-08-11T11:38:37.945Z,399.38
2022-08-11T11:39:37.946Z,399.38
2022-08-11T11:40:37.930Z,393.75
2022-08-11T11:41:37.922Z,399.38
2022-08-11T11:42:38.174Z,399.38
2022-08-11T11:43:37.912Z,399.38
2022-08-11T11:44:37.898Z,399.38
2022-08-11T11:45:37.903Z,393.75
2022-08-11T11:46:38.845Z,393.75
2022-08-11T11:47:37.905Z,393.75
2022-08-11T11:48:37.868Z,393.75
2022-08-11T11:49:37.864Z,393.75
2022-08-11T11:50:37.860Z,393.75
2022-08-11T11:51:37.851Z,388.12
2022-08-11T11:52:38.086Z,399.38
2022-08-11T11:53:37.831Z,393.75
2022-08-11T11:54:37.832Z,393.75
2022-08-11T11:55:37.827Z,388.12
2022-08-11T11:56:37.813Z,393.75
2022-08-11T11:57:38.030Z,393.75
2022-08-11T11:58:37.796Z,393.75
2022-08-11T11:59:37.790Z,393.75
2022-08-11T12:00:40.360Z,399.38
2022-08-11T12:01:38.773Z,399.38
2022-08-11T12:02:37.790Z,399.38
2022-08-11T12:03:37.798Z,399.38
2022-08-11T12:04:37.749Z,399.38
2022-08-11T12:05:37.740Z,399.38
2022-08-11T12:06:37.778Z,399.38
2022-08-11T12:07:37.896Z,388.12
2022-08-11T12:08:37.717Z,388.12
2022-08-11T12:09:37.720Z,382.50
2022-08-11T12:10:37.701Z,399.38
2022-08-11T12:11:37.699Z,405.00
2022-08-11T12:12:37.719Z,399.38
2022-08-11T12:13:37.683Z,399.38
2022-08-11T12:14:37.675Z,399.38
2022-08-11T12:16:31.326Z,393.75
2022-08-11T12:16:38.661Z,393.75
2022-08-11T12:17:37.969Z,388.12
2022-08-11T12:18:37.649Z,388.12
2022-08-11T12:19:37.646Z,382.50
2022-08-11T12:20:37.636Z,371.25
2022-08-11T12:21:37.631Z,382.50
2022-08-11T12:22:37.649Z,382.50
2022-08-11T12:23:37.617Z,382.50
2022-08-11T12:24:37.609Z,382.50
2022-08-11T12:25:37.602Z,388.12
2022-08-11T12:26:37.598Z,388.12
2022-08-11T12:27:39.306Z,382.50
2022-08-11T12:28:37.581Z,388.12
2022-08-11T12:29:41.117Z,399.38
2022-08-11T12:30:38.597Z,399.38
2022-08-11T12:31:37.560Z,393.75
2022-08-11T12:32:37.775Z,393.75
2022-08-11T12:33:39.532Z,388.12
2022-08-11T12:34:38.534Z,376.88